createdAt,value
2019-02-23T00:00:57.188Z,6.50
2019-02-23T00:03:26.940Z,6.50
2019-02-23T00:05:56.456Z,6.40
2019-02-23T00:08:26.002Z,6.40
2019-02-23T00:10:55.524Z,6.40
2019-02-23T00:13:26.752Z,6.30
2019-02-23T00:15:56.289Z,6.30
2019-02-23T00:18:28.506Z,6.30
2019-02-23T00:20:59.176Z,6.30
2019-02-23T00:23:28.694Z,6.30
2019-02-23T00:25:58.209Z,6.20
2019-02-23T00:28:27.753Z,6.20
2019-02-23T00:30:57.252Z,6.10
2019-02-23T00:33:26.748Z,6.10
2019-02-23T00:35:56.277Z,6.10
2019-02-23T00:38:25.777Z,6.10
2019-02-23T00:40:55.303Z,6.00
2019-02-23T00:43:24.848Z,6.00
2019-02-23T00:45:54.361Z,6.00
2019-02-23T00:48:23.872Z,5.90
2019-02-23T00:50:53.434Z,5.90
2019-02-23T00:53:22.927Z,5.90
2019-02-23T00:55:52.468Z,5.90
2019-02-23T00:58:21.984Z,5.80
2019-02-23T01:00:51.484Z,5.80
2019-02-23T01:03:20.984Z,5.80
2019-02-23T01:05:50.522Z,5.80
2019-02-23T01:08:20.030Z,5.80
2019-02-23T01:10:57.700Z,5.80
2019-02-23T01:13:20.848Z,5.80
2019-02-23T01:15:50.338Z,5.80
2019-02-23T01:18:19.855Z,5.80
2019-02-23T01:20:49.412Z,5.70
2019-02-23T01:23:18.941Z,5.70
2019-02-23T01:25:48.449Z,5.70
2019-02-23T01:28:17.971Z,5.60
2019-02-23T01:30:47.458Z,5.60
2019-02-23T01:33:16.974Z,5.60
2019-02-23T01:35:46.484Z,5.60
2019-02-23T01:38:15.988Z,5.60
2019-02-23T01:40:45.475Z,5.60
2019-02-23T01:43:15.021Z,5.60
2019-02-23T01:45:44.556Z,5.60
2019-02-23T01:48:14.056Z,5.50
2019-02-23T01:50:43.595Z,5.50
2019-02-23T01:53:13.098Z,5.50
2019-02-23T01:55:42.598Z,5.40
2019-02-23T01:58:12.144Z,5.40
2019-02-23T02:00:41.645Z,5.40
2019-02-23T02:03:11.150Z,5.40
2019-02-23T02:05:40.705Z,5.40
2019-02-23T02:08:10.530Z,5.40
2019-02-23T02:10:40.035Z,5.40
2019-02-23T02:13:09.681Z,5.30
2019-02-23T02:15:39.301Z,5.30
2019-02-23T02:18:08.804Z,5.30
2019-02-23T02:20:38.361Z,5.30
2019-02-23T02:23:07.872Z,5.30
2019-02-23T02:25:37.404Z,5.40
2019-02-23T02:28:06.927Z,5.40
2019-02-23T02:30:36.445Z,5.50
2019-02-23T02:33:06.006Z,5.50
2019-02-23T02:38:10.000Z,5.60
2019-02-23T02:40:39.503Z,5.70
2019-02-23T02:43:09.004Z,5.80
2019-02-23T02:45:38.581Z,5.80
2019-02-23T02:48:08.087Z,5.80
2019-02-23T02:50:37.658Z,5.80
2019-02-23T02:53:07.217Z,5.90
2019-02-23T02:55:36.723Z,5.90
2019-02-23T02:58:06.258Z,5.90
2019-02-23T03:00:35.768Z,5.90
2019-02-23T03:03:05.288Z,5.90
2019-02-23T03:05:34.851Z,6.00
2019-02-23T03:08:04.343Z,6.00
2019-02-23T03:10:33.840Z,6.00
2019-02-23T03:13:03.369Z,6.00
2019-02-23T03:15:32.881Z,6.00
2019-02-23T03:18:02.392Z,6.00
2019-02-23T03:20:36.563Z,6.00
2019-02-23T03:23:03.034Z,6.00
2019-02-23T03:25:32.588Z,6.00
2019-02-23T03:28:02.084Z,6.00
2019-02-23T03:30:31.629Z,6.00
2019-02-23T03:33:01.125Z,6.00
2019-02-23T03:35:30.663Z,6.00
2019-02-23T03:38:00.206Z,6.00
2019-02-23T03:40:29.714Z,6.10
2019-02-23T03:42:59.272Z,6.00
2019-02-23T03:45:28.760Z,6.10
2019-02-23T03:47:58.288Z,6.00
2019-02-23T03:50:27.856Z,6.00
2019-02-23T03:52:57.343Z,6.10
2019-02-23T03:55:26.945Z,6.10
2019-02-23T03:57:56.458Z,6.00
2019-02-23T04:00:25.962Z,6.00
2019-02-23T04:02:55.651Z,6.00
2019-02-23T04:05:25.239Z,6.00
2019-02-23T04:07:54.687Z,6.00
2019-02-23T04:10:24.197Z,6.00
2019-02-23T04:12:53.737Z,6.10
2019-02-23T04:15:23.259Z,6.10
2019-02-23T04:17:52.760Z,6.10
2019-02-23T04:20:22.285Z,6.10
2019-02-23T04:22:51.865Z,6.10
2019-02-23T04:25:21.385Z,6.10
2019-02-23T04:27:50.923Z,6.10
2019-02-23T04:30:20.401Z,6.20
2019-02-23T04:32:49.918Z,6.20
2019-02-23T04:35:19.486Z,6.20
2019-02-23T04:37:48.981Z,6.10
2019-02-23T04:40:18.497Z,6.10
2019-02-23T04:42:48.038Z,6.10
2019-02-23T04:45:17.540Z,6.10
2019-02-23T04:47:47.206Z,6.10
2019-02-23T04:50:16.738Z,6.10
2019-02-23T04:52:46.382Z,6.10
2019-02-23T04:55:15.885Z,6.10
2019-02-23T04:57:45.399Z,6.10
2019-02-23T05:00:15.537Z,6.10
2019-02-23T05:02:45.033Z,6.10
2019-02-23T05:05:14.576Z,6.20
2019-02-23T05:07:44.143Z,6.20
2019-02-23T05:10:13.649Z,6.20
2019-02-23T05:12:43.191Z,6.20
2019-02-23T05:15:12.802Z,6.20
2019-02-23T05:17:42.326Z,6.20
2019-02-23T05:20:11.857Z,6.20
2019-02-23T05:22:41.352Z,6.20
2019-02-23T05:25:10.868Z,6.20
2019-02-23T05:27:40.425Z,6.20
2019-02-23T05:30:10.428Z,6.20
2019-02-23T05:32:39.933Z,6.20
2019-02-23T05:35:10.861Z,6.20
2019-02-23T05:37:40.406Z,6.20
2019-02-23T05:40:10.392Z,6.20
2019-02-23T05:42:39.935Z,6.20
2019-02-23T05:45:09.530Z,6.20
2019-02-23T05:47:39.007Z,6.20
2019-02-23T05:50:08.658Z,6.20
2019-02-23T05:52:38.133Z,6.20
2019-02-23T05:55:07.652Z,6.20
2019-02-23T05:57:37.178Z,6.20
2019-02-23T06:00:07.841Z,6.30
2019-02-23T06:02:37.292Z,6.30
2019-02-23T06:05:06.952Z,6.20
2019-02-23T06:07:36.456Z,6.20
2019-02-23T06:10:07.461Z,6.20
2019-02-23T06:12:37.008Z,6.20
2019-02-23T06:15:08.542Z,6.20
2019-02-23T06:17:38.099Z,6.20
2019-02-23T06:20:08.767Z,6.30
2019-02-23T06:22:38.421Z,6.20
2019-02-23T06:25:09.050Z,6.20
2019-02-23T06:27:38.624Z,6.20
2019-02-23T06:30:09.961Z,6.20
2019-02-23T06:32:39.487Z,6.20
2019-02-23T06:35:09.405Z,6.20
2019-02-23T06:37:38.918Z,6.20
2019-02-23T06:40:08.798Z,6.20
2019-02-23T06:42:38.307Z,6.20
2019-02-23T06:45:08.262Z,6.20
2019-02-23T06:47:37.800Z,6.20
2019-02-23T06:50:07.419Z,6.30
2019-02-23T06:52:36.929Z,6.30
2019-02-23T06:55:06.464Z,6.30
2019-02-23T06:57:36.019Z,6.30
2019-02-23T07:00:05.953Z,6.30
2019-02-23T07:02:35.452Z,6.30
2019-02-23T07:05:05.033Z,6.40
2019-02-23T07:07:34.619Z,6.40
2019-02-23T07:10:04.171Z,6.40
2019-02-23T07:12:33.728Z,6.40
2019-02-23T07:15:03.263Z,6.40
2019-02-23T07:17:32.750Z,6.40
2019-02-23T07:20:02.283Z,6.40
2019-02-23T07:22:33.630Z,6.40
2019-02-23T07:25:03.074Z,6.40
2019-02-23T07:27:32.607Z,6.40
2019-02-23T07:30:02.131Z,6.40
2019-02-23T07:32:31.644Z,6.50
2019-02-23T07:35:01.236Z,6.50
2019-02-23T07:37:30.740Z,6.60
2019-02-23T07:40:00.277Z,6.60
2019-02-23T07:42:29.827Z,6.60
2019-02-23T07:44:59.340Z,6.50
2019-02-23T07:47:28.885Z,6.40
2019-02-23T07:49:58.398Z,6.30
2019-02-23T07:52:28.068Z,6.30
2019-02-23T07:54:57.645Z,6.30
2019-02-23T07:57:27.196Z,6.40
2019-02-23T07:59:56.703Z,6.40
2019-02-23T08:02:26.225Z,6.30
2019-02-23T08:04:55.823Z,6.30
2019-02-23T08:07:25.303Z,6.40
2019-02-23T08:09:54.807Z,6.40
2019-02-23T08:12:24.335Z,6.40
2019-02-23T08:14:53.845Z,6.50
2019-02-23T08:17:23.382Z,6.50
2019-02-23T08:19:52.916Z,6.60
2019-02-23T08:22:22.407Z,6.60
2019-02-23T08:24:51.930Z,6.60
2019-02-23T08:27:21.484Z,6.70
2019-02-23T08:29:51.001Z,6.70
2019-02-23T08:32:20.504Z,6.70
2019-02-23T08:34:50.035Z,6.60
2019-02-23T08:37:19.588Z,6.60
2019-02-23T08:39:49.553Z,6.50
2019-02-23T08:42:19.122Z,6.50
2019-02-23T08:44:48.645Z,6.50
2019-02-23T08:47:18.166Z,6.50
2019-02-23T08:49:47.745Z,6.50
2019-02-23T08:52:18.340Z,6.40
2019-02-23T08:54:48.056Z,6.50
2019-02-23T08:57:17.564Z,6.50
2019-02-23T08:59:47.068Z,6.50
2019-02-23T09:02:16.574Z,6.50
2019-02-23T09:04:46.119Z,6.50
2019-02-23T09:07:15.680Z,6.60
2019-02-23T09:09:45.177Z,6.60
2019-02-23T09:12:14.700Z,6.60
2019-02-23T09:14:44.216Z,6.70
2019-02-23T09:17:13.716Z,6.70
2019-02-23T09:19:43.274Z,6.70
2019-02-23T09:22:12.805Z,6.70
2019-02-23T09:24:42.349Z,6.70
2019-02-23T09:27:12.073Z,6.70
2019-02-23T09:29:41.588Z,6.80
2019-02-23T09:32:11.092Z,6.80
2019-02-23T09:34:40.626Z,6.90
2019-02-23T09:37:10.160Z,6.90
2019-02-23T09:39:39.667Z,7.00
2019-02-23T09:42:12.363Z,7.10
2019-02-23T09:44:41.909Z,7.10
2019-02-23T09:47:11.512Z,7.10
2019-02-23T09:49:41.048Z,7.20
2019-02-23T09:52:10.576Z,7.20
2019-02-23T09:54:40.194Z,7.30
2019-02-23T09:57:09.748Z,7.30
2019-02-23T09:59:40.256Z,7.40
2019-02-23T10:02:09.841Z,7.50
2019-02-23T10:04:39.429Z,7.50
2019-02-23T10:07:08.998Z,7.50
2019-02-23T10:09:38.504Z,7.60
2019-02-23T10:12:08.051Z,7.70
2019-02-23T10:14:37.598Z,7.80
2019-02-23T10:17:09.228Z,7.80
2019-02-23T10:19:38.314Z,8.00
2019-02-23T10:22:07.938Z,8.10
2019-02-23T10:24:37.471Z,8.20
2019-02-23T10:27:07.067Z,8.20
2019-02-23T10:29:36.571Z,8.30
2019-02-23T10:32:06.096Z,8.30
2019-02-23T10:34:35.668Z,8.30
2019-02-23T10:37:05.280Z,8.40
2019-02-23T10:39:34.812Z,8.50
2019-02-23T10:42:04.357Z,8.50
2019-02-23T10:44:33.887Z,8.60
2019-02-23T10:47:03.389Z,8.70
2019-02-23T10:49:32.932Z,8.70
2019-02-23T10:52:02.465Z,8.80
2019-02-23T10:54:31.976Z,8.90
2019-02-23T10:57:01.638Z,8.90
2019-02-23T10:59:31.181Z,9.00
2019-02-23T11:02:00.687Z,9.00
2019-02-23T11:04:30.238Z,9.00
2019-02-23T11:06:59.725Z,9.10
2019-02-23T11:09:33.723Z,9.20
2019-02-23T11:15:23.391Z,9.70
2019-02-23T11:17:52.888Z,11.40
2019-02-23T11:20:22.897Z,12.90
2019-02-23T11:22:52.443Z,14.00
2019-02-23T11:25:22.086Z,14.90
2019-02-23T11:27:51.672Z,15.50
2019-02-23T11:30:21.179Z,16.00
2019-02-23T11:32:50.690Z,16.40
2019-02-23T11:35:20.219Z,16.70
2019-02-23T11:37:49.933Z,16.90
2019-02-23T11:40:19.538Z,17.10
2019-02-23T11:42:49.070Z,17.30
2019-02-23T11:45:23.939Z,17.40
2019-02-23T11:48:12.148Z,17.50
2019-02-23T11:51:13.476Z,17.60
2019-02-23T11:53:43.294Z,17.70
2019-02-23T11:56:12.878Z,17.80
2019-02-23T11:58:42.457Z,17.80
2019-02-23T12:01:11.983Z,17.90
2019-02-23T12:03:41.508Z,18.00
2019-02-23T12:06:11.108Z,18.00
2019-02-23T12:08:40.651Z,18.00
2019-02-23T12:11:10.355Z,18.10
2019-02-23T12:13:39.917Z,18.10
2019-02-23T12:16:09.445Z,18.10
2019-02-23T12:18:38.996Z,18.20
2019-02-23T12:21:08.615Z,18.20
2019-02-23T12:23:38.104Z,18.20
2019-02-23T12:26:09.385Z,18.30
2019-02-23T12:28:39.574Z,18.30
2019-02-23T12:31:11.532Z,18.40
2019-02-23T12:33:41.598Z,18.40
2019-02-23T12:36:11.115Z,18.40
2019-02-23T12:38:40.660Z,18.40
2019-02-23T12:41:10.247Z,18.40
2019-02-23T12:43:40.313Z,18.40
2019-02-23T12:46:10.238Z,18.40
2019-02-23T12:48:40.297Z,18.40
2019-02-23T12:51:09.799Z,18.40
2019-02-23T12:53:39.297Z,18.40
2019-02-23T12:56:08.848Z,18.50
2019-02-23T12:58:38.399Z,18.60
2019-02-23T13:01:07.947Z,18.60
2019-02-23T13:03:37.979Z,18.70
2019-02-23T13:06:07.518Z,18.80
2019-02-23T13:09:13.390Z,18.90
2019-02-23T13:11:44.746Z,19.00
2019-02-23T13:14:48.554Z,19.10
2019-02-23T13:18:00.778Z,19.30
2019-02-23T13:20:44.650Z,19.40
2019-02-23T13:23:33.172Z,19.50
2019-02-23T13:26:41.139Z,19.60
2019-02-23T13:29:53.361Z,19.70
2019-02-23T13:32:48.148Z,19.90
2019-02-23T13:35:51.357Z,20.00
2019-02-23T13:38:56.328Z,20.00
2019-02-23T13:41:48.528Z,20.10
2019-02-23T13:45:00.609Z,20.30
2019-02-23T13:48:29.124Z,20.40
2019-02-23T13:51:17.256Z,20.40
2019-02-23T13:54:24.804Z,20.50
2019-02-23T13:57:50.838Z,20.60
2019-02-23T14:00:57.682Z,20.80
2019-02-23T14:04:24.713Z,21.00
2019-02-23T14:07:20.015Z,21.10
2019-02-23T14:10:43.871Z,21.20
2019-02-23T14:13:35.244Z,21.30
2019-02-23T14:16:39.494Z,21.40
2019-02-23T14:20:01.107Z,21.40
2019-02-23T14:23:03.492Z,21.50
2019-02-23T14:26:16.630Z,21.60
2019-02-23T14:29:23.424Z,21.80
2019-02-23T14:32:19.606Z,21.90
2019-02-23T14:35:30.233Z,21.90
2019-02-23T14:38:37.433Z,21.90
2019-02-23T14:41:47.535Z,22.00
2019-02-23T14:45:07.267Z,22.10
2019-02-23T14:48:13.908Z,22.20
2019-02-23T14:51:27.482Z,22.20
2019-02-23T14:54:37.834Z,22.20
2019-02-23T14:57:55.227Z,22.20
2019-02-23T15:01:04.097Z,22.20
2019-02-23T15:04:35.748Z,22.30
2019-02-23T15:07:28.888Z,22.30
2019-02-23T15:10:51.378Z,22.30
2019-02-23T15:13:59.542Z,22.40
2019-02-23T15:17:07.411Z,22.30
2019-02-23T15:20:13.196Z,22.30
2019-02-23T15:23:14.121Z,22.20
2019-02-23T15:26:10.597Z,22.10
2019-02-23T15:28:57.204Z,22.00
2019-02-23T15:32:25.909Z,21.80
2019-02-23T15:35:16.252Z,21.70
2019-02-23T15:38:14.944Z,21.60
2019-02-23T15:41:21.222Z,21.50
2019-02-23T15:44:37.863Z,21.50
2019-02-23T15:47:44.230Z,21.40
2019-02-23T15:50:14.167Z,21.50
2019-02-23T15:52:44.011Z,21.50
2019-02-23T15:55:25.389Z,21.60
2019-02-23T15:57:45.207Z,21.70
2019-02-23T16:00:15.444Z,21.60
2019-02-23T16:02:44.969Z,21.70
2019-02-23T16:05:14.603Z,21.60
2019-02-23T16:07:44.162Z,21.60
2019-02-23T16:10:13.692Z,21.50
2019-02-23T16:12:43.290Z,21.50
2019-02-23T16:15:13.193Z,21.50
2019-02-23T16:17:42.703Z,21.50
2019-02-23T16:20:12.287Z,21.50
2019-02-23T16:22:41.807Z,21.40
2019-02-23T16:25:12.276Z,21.30
2019-02-23T16:27:42.144Z,21.20
2019-02-23T16:30:11.808Z,21.10
2019-02-23T16:32:41.776Z,21.00
2019-02-23T16:35:11.319Z,20.80
2019-02-23T16:37:41.265Z,20.70
2019-02-23T16:40:11.157Z,20.60
2019-02-23T16:42:40.717Z,20.50
2019-02-23T16:45:10.336Z,20.50
2019-02-23T16:47:40.249Z,20.40
2019-02-23T16:50:09.787Z,20.30
2019-02-23T16:52:39.390Z,20.30
2019-02-23T16:55:08.933Z,20.20
2019-02-23T16:57:38.467Z,20.20
2019-02-23T17:00:08.364Z,20.10
2019-02-23T17:02:38.262Z,20.10
2019-02-23T17:05:07.829Z,20.10
2019-02-23T17:07:37.921Z,20.00
2019-02-23T17:10:07.796Z,20.00
2019-02-23T17:12:37.783Z,19.90
2019-02-23T17:15:10.494Z,19.90
2019-02-23T17:17:39.088Z,19.80
2019-02-23T17:20:08.642Z,19.80
2019-02-23T17:22:38.545Z,19.80
2019-02-23T17:25:08.112Z,19.70
2019-02-23T17:27:38.147Z,19.70
2019-02-23T17:30:08.265Z,19.60
2019-02-23T17:32:38.505Z,19.60
2019-02-23T17:35:08.037Z,19.60
2019-02-23T17:37:37.596Z,19.50
2019-02-23T17:40:07.212Z,19.50
2019-02-23T17:42:36.756Z,19.50
2019-02-23T17:45:07.150Z,19.50
2019-02-23T17:47:36.858Z,19.50
2019-02-23T17:50:06.617Z,19.40
2019-02-23T17:52:36.596Z,19.40
2019-02-23T17:55:06.115Z,19.40
2019-02-23T17:57:36.116Z,19.40
2019-02-23T18:00:06.234Z,19.40
2019-02-23T18:02:35.805Z,19.30
2019-02-23T18:05:05.547Z,19.30
2019-02-23T18:07:35.108Z,19.30
2019-02-23T18:10:05.379Z,19.30
2019-02-23T18:12:34.951Z,19.20
2019-02-23T18:15:04.601Z,19.20
2019-02-23T18:17:53.148Z,19.20
2019-02-23T18:20:23.105Z,19.20
2019-02-23T18:22:52.597Z,19.20
2019-02-23T18:25:22.669Z,19.20
2019-02-23T18:27:52.710Z,19.10
2019-02-23T18:30:22.627Z,19.10
2019-02-23T18:32:52.383Z,19.10
2019-02-23T18:35:22.229Z,19.10
2019-02-23T18:37:52.161Z,19.00
2019-02-23T18:40:22.151Z,19.00
2019-02-23T18:42:51.636Z,19.00
2019-02-23T18:45:21.145Z,19.00
2019-02-23T18:47:50.680Z,19.00
2019-02-23T18:50:21.760Z,19.00
2019-02-23T18:52:51.412Z,18.90
2019-02-23T18:55:20.948Z,18.90
2019-02-23T18:57:50.457Z,18.90
2019-02-23T19:00:24.389Z,18.90
2019-02-23T19:02:51.208Z,18.80
2019-02-23T19:05:20.713Z,18.80
2019-02-23T19:07:50.212Z,18.80
2019-02-23T19:10:20.362Z,18.80
2019-02-23T19:12:50.332Z,18.80
2019-02-23T19:15:20.159Z,18.80
2019-02-23T19:17:49.746Z,18.70
2019-02-23T19:20:19.307Z,18.70
2019-02-23T19:22:48.923Z,18.70
2019-02-23T19:25:18.551Z,18.70
2019-02-23T19:27:49.484Z,18.70
2019-02-23T19:30:19.101Z,18.70
2019-02-23T19:32:49.076Z,18.70
2019-02-23T19:35:18.604Z,18.70
2019-02-23T19:37:48.149Z,18.70
2019-02-23T19:40:17.690Z,18.70
2019-02-23T19:42:47.194Z,18.60
2019-02-23T19:45:16.709Z,18.60
2019-02-23T19:47:46.287Z,18.60
2019-02-23T19:50:19.090Z,18.60
2019-02-23T19:52:49.003Z,18.60
2019-02-23T19:55:18.602Z,18.60
2019-02-23T19:57:48.116Z,18.60
2019-02-23T20:00:17.613Z,18.50
2019-02-23T20:02:47.211Z,18.60
2019-02-23T20:05:16.725Z,18.60
2019-02-23T20:07:46.613Z,18.50
2019-02-23T20:10:16.155Z,18.50
2019-02-23T20:12:45.716Z,18.50
2019-02-23T20:15:15.289Z,18.50
2019-02-23T20:17:44.853Z,18.50
2019-02-23T20:20:14.382Z,18.50
2019-02-23T20:22:43.895Z,18.40
2019-02-23T20:25:13.551Z,18.40
2019-02-23T20:27:43.098Z,18.40
2019-02-23T20:30:12.610Z,18.40
2019-02-23T20:32:42.270Z,18.40
2019-02-23T20:35:11.799Z,18.30
2019-02-23T20:37:41.669Z,18.40
2019-02-23T20:40:11.229Z,18.30
2019-02-23T20:42:40.754Z,18.30
2019-02-23T20:45:10.268Z,18.30
2019-02-23T20:47:40.184Z,18.30
2019-02-23T20:50:09.704Z,18.30
2019-02-23T20:52:39.198Z,18.30
2019-02-23T20:55:08.784Z,18.30
2019-02-23T20:57:38.297Z,18.30
2019-02-23T21:00:07.835Z,18.30
2019-02-23T21:02:56.437Z,18.20
2019-02-23T21:05:25.950Z,18.20
2019-02-23T21:07:55.482Z,18.20
2019-02-23T21:10:25.017Z,18.20
2019-02-23T21:12:55.468Z,18.20
2019-02-23T21:15:25.036Z,18.20
2019-02-23T21:17:55.109Z,18.20
2019-02-23T21:20:24.594Z,18.20
2019-02-23T21:22:54.125Z,18.10
2019-02-23T21:25:23.690Z,18.10
2019-02-23T21:27:53.183Z,18.10
2019-02-23T21:30:22.725Z,18.10
2019-02-23T21:32:52.286Z,18.10
2019-02-23T21:35:22.168Z,18.00
2019-02-23T21:37:51.673Z,18.00
2019-02-23T21:40:21.572Z,18.00
2019-02-23T21:42:51.485Z,18.00
2019-02-23T21:45:21.016Z,18.00
2019-02-23T21:47:50.920Z,18.00
2019-02-23T21:50:20.881Z,18.00
2019-02-23T21:52:51.222Z,17.90
2019-02-23T21:55:20.774Z,17.90
2019-02-23T21:57:51.008Z,17.90
2019-02-23T22:00:20.648Z,17.90
2019-02-23T22:02:50.894Z,17.90
2019-02-23T22:05:20.510Z,17.90
2019-02-23T22:07:52.880Z,17.80
2019-02-23T22:10:22.762Z,17.80
2019-02-23T22:12:53.132Z,17.80
2019-02-23T22:15:22.700Z,17.80
2019-02-23T22:17:52.721Z,17.80
2019-02-23T22:20:22.248Z,17.80
2019-02-23T22:22:51.842Z,17.70
2019-02-23T22:25:21.398Z,17.70
2019-02-23T22:27:50.892Z,17.70
2019-02-23T22:30:20.436Z,17.70
2019-02-23T22:32:50.292Z,17.70
2019-02-23T22:35:19.796Z,17.70
2019-02-23T22:37:49.705Z,17.70
2019-02-23T22:40:19.590Z,17.70
2019-02-23T22:42:49.119Z,17.60
2019-02-23T22:45:18.622Z,17.60
2019-02-23T22:47:48.161Z,17.60
2019-02-23T22:50:17.683Z,17.60
2019-02-23T22:52:47.203Z,17.60
2019-02-23T22:55:16.867Z,17.50
2019-02-23T22:57:46.815Z,17.50
2019-02-23T23:00:21.517Z,17.50
2019-02-23T23:02:51.086Z,17.50
2019-02-23T23:05:21.133Z,17.50
2019-02-23T23:07:51.036Z,17.40
2019-02-23T23:10:21.362Z,17.40
2019-02-23T23:12:50.870Z,17.40
2019-02-23T23:15:20.752Z,17.40
2019-02-23T23:17:50.244Z,17.40
2019-02-23T23:20:19.780Z,17.40
2019-02-23T23:22:49.681Z,17.40
2019-02-23T23:25:19.608Z,17.40
2019-02-23T23:27:49.993Z,17.40
2019-02-23T23:30:19.563Z,17.30
2019-02-23T23:32:49.757Z,17.30
2019-02-23T23:35:19.694Z,17.30
2019-02-23T23:37:49.213Z,17.30
2019-02-23T23:40:19.091Z,17.30
2019-02-23T23:42:57.814Z,17.30
2019-02-23T23:45:20.561Z,17.30
2019-02-23T23:47:50.113Z,17.20
2019-02-23T23:50:20.019Z,17.20
2019-02-23T23:52:49.573Z,17.20
2019-02-23T23:55:19.077Z,17.20
2019-02-23T23:57:57.670Z,17.10
